Jean Anne — WDC3786 — position and weather

sailwx.info

Track history (hours):
 
Tides and Currents Weather Stations Pressure Air Temp Water Temp Dewpoint Dewpoint Depression Visibility Wind Speed Wind Dir Waves Ship Positions

Jean Anne

Owner: PASHA HAWAII TRANSPORT LINES LLC, Raleigh, NC. More information available from US FCC via Universal Licensing System and Coast Guard Vessel Documentation Center.

Last reported at 2014-Oct-19 18:00 UTC. Time now 2014-Oct-23 04:45 UTC.
Position N 26°00' W 138°48'.

Type: Cargo ship. MMSI: 367003380.

Wind from 280 at 13 knots

Waves 1.0 meters (3 feet), 10 second period

Barometer 1017.6 mb
Air temperature 22.0 ° C
Visibility: greater than 10.8 NM
Dewpoint 20.5 ° C

Date/timePositionNaut miles runAvg speedWind from/ knotsBaromVisibWave heightAir tempDewpointWater temp
2014-Oct-19 18:00N 26°00' W 138°48'0 0.0 280 / 131017.610.8 1.022.020.5
2014-Oct-18 18:00N 26°00' W 138°48'   280 / 131017.610.8 1.022.020.5
2014-Oct-16 05:31N 31°00' W 118°46'9518.6
2014-Oct-16 00:25N 32°13' W 117°35'1314.9
2014-Oct-15 23:33N 32°24' W 117°26'1515.4
2014-Oct-15 22:33N 32°36' W 117°15'7 7.4
2014-Oct-15 21:34N 32°42' W 117°09'3 2.7
2014-Oct-15 20:33N 32°39' W 117°07'0 0.0
2014-Oct-15 19:33N 32°39' W 117°07'0 0.0
2014-Oct-15 18:32N 32°39' W 117°07'0 0.0
2014-Oct-15 17:32N 32°39' W 117°07'0 0.0
2014-Oct-15 16:29N 32°39' W 117°07'0 0.0
2014-Oct-15 15:32N 32°39' W 117°07'0 0.0
2014-Oct-15 14:32N 32°39' W 117°07'0 0.0
2014-Oct-15 13:32N 32°39' W 117°07'0 0.0
2014-Oct-15 12:32N 32°39' W 117°07'0 0.0
2014-Oct-15 11:32N 32°39' W 117°07'0 0.0
2014-Oct-15 10:32N 32°39' W 117°07'0 0.0
2014-Oct-15 09:32N 32°39' W 117°07'0 0.0
2014-Oct-15 08:32N 32°39' W 117°07'0 0.0
2014-Oct-15 07:32N 32°39' W 117°07'0 0.0
2014-Oct-15 06:32N 32°39' W 117°07'0 0.0
2014-Oct-15 05:32N 32°39' W 117°07'0 0.0
2014-Oct-15 04:32N 32°39' W 117°07'0 0.0
2014-Oct-15 03:32N 32°39' W 117°07'0 0.0
2014-Oct-15 02:29N 32°39' W 117°07'0 0.0
2014-Oct-15 01:32N 32°39' W 117°07'0 0.0
2014-Oct-15 00:32N 32°39' W 117°07'0 0.0
2014-Oct-14 23:32N 32°39' W 117°07'0 0.0
2014-Oct-14 22:32N 32°39' W 117°07'0 0.0
2014-Oct-14 21:32N 32°39' W 117°07'0 0.0
2014-Oct-14 20:32N 32°39' W 117°07'0 0.0
2014-Oct-14 19:32N 32°39' W 117°07'0 0.0
2014-Oct-14 18:29N 32°39' W 117°07'0 0.0
2014-Oct-14 17:32N 32°39' W 117°07'0 0.0
2014-Oct-14 16:32N 32°39' W 117°07'0 0.0
2014-Oct-14 15:32N 32°39' W 117°07'0 0.0
2014-Oct-14 14:32N 32°39' W 117°07'2 2.4
2014-Oct-14 13:34N 32°41' W 117°09'6 6.4
2014-Oct-14 12:34N 32°37' W 117°15'1312.9
2014-Oct-14 11:33N 32°27' W 117°24'1615.5
2014-Oct-14 10:33N 32°14' W 117°34'1717.0
2014-Oct-14 09:33N 32°00' W 117°46'1717.4
2014-Oct-14 08:33N 31°46' W 117°58'1717.2
2014-Oct-14 07:33N 31°32' W 118°10'1818.1
2014-Oct-14 06:33N 31°18' W 118°23'1918.9
2014-Oct-14 05:33N 31°03' W 118°36'7719.2
2014-Oct-14 01:32N 30°47' W 120°04'2019.5
2014-Oct-14 00:32N 30°43' W 120°27'2119.8
2014-Oct-13 23:27N 30°38' W 120°51'5719.8
2014-Oct-13 20:33N 30°27' W 121°56'2119.6
2014-Oct-13 19:29N 30°22' W 122°20'1919.7
2014-Oct-13 18:30N 30°18' W 122°42'2119.7
2014-Oct-13 17:27N 30°14' W 123°05'1920.0
2014-Oct-13 16:29N 30°10' W 123°27'20718.9
2014-Oct-13 05:30N 29°22' W 127°19'2618.5
2014-Oct-13 04:05N 29°15' W 127°48'  
Track history (hours):
 
Tides and Currents Weather Stations Pressure Air Temp Water Temp Dewpoint Dewpoint Depression Visibility Wind Speed Wind Dir Waves Ship Positions

Jean Anne

Owner: PASHA HAWAII TRANSPORT LINES LLC, Raleigh, NC. More information available from US FCC via Universal Licensing System and Coast Guard Vessel Documentation Center.

Last reported at 2014-Oct-19 18:00 UTC. Time now 2014-Oct-23 04:45 UTC.
Position N 26°00' W 138°48'.

Type: Cargo ship. MMSI: 367003380.

Wind from 280 at 13 knots

Waves 1.0 meters (3 feet), 10 second period

Barometer 1017.6 mb
Air temperature 22.0 ° C
Visibility: greater than 10.8 NM
Dewpoint 20.5 ° C

Date/timePositionNaut miles runAvg speedWind from/ knotsBaromVisibWave heightAir tempDewpointWater temp
2014-Oct-19 18:00N 26°00' W 138°48'0 0.0 280 / 131017.610.8 1.022.020.5
2014-Oct-18 18:00N 26°00' W 138°48'   280 / 131017.610.8 1.022.020.5
2014-Oct-16 05:31N 31°00' W 118°46'9518.6
2014-Oct-16 00:25N 32°13' W 117°35'1314.9
2014-Oct-15 23:33N 32°24' W 117°26'1515.4
2014-Oct-15 22:33N 32°36' W 117°15'7 7.4
2014-Oct-15 21:34N 32°42' W 117°09'3 2.7
2014-Oct-15 20:33N 32°39' W 117°07'0 0.0
2014-Oct-15 19:33N 32°39' W 117°07'0 0.0
2014-Oct-15 18:32N 32°39' W 117°07'0 0.0
2014-Oct-15 17:32N 32°39' W 117°07'0 0.0
2014-Oct-15 16:29N 32°39' W 117°07'0 0.0
2014-Oct-15 15:32N 32°39' W 117°07'0 0.0
2014-Oct-15 14:32N 32°39' W 117°07'0 0.0
2014-Oct-15 13:32N 32°39' W 117°07'0 0.0
2014-Oct-15 12:32N 32°39' W 117°07'0 0.0
2014-Oct-15 11:32N 32°39' W 117°07'0 0.0
2014-Oct-15 10:32N 32°39' W 117°07'0 0.0
2014-Oct-15 09:32N 32°39' W 117°07'0 0.0
2014-Oct-15 08:32N 32°39' W 117°07'0 0.0
2014-Oct-15 07:32N 32°39' W 117°07'0 0.0
2014-Oct-15 06:32N 32°39' W 117°07'0 0.0
2014-Oct-15 05:32N 32°39' W 117°07'0 0.0
2014-Oct-15 04:32N 32°39' W 117°07'0 0.0
2014-Oct-15 03:32N 32°39' W 117°07'0 0.0
2014-Oct-15 02:29N 32°39' W 117°07'0 0.0
2014-Oct-15 01:32N 32°39' W 117°07'0 0.0
2014-Oct-15 00:32N 32°39' W 117°07'0 0.0
2014-Oct-14 23:32N 32°39' W 117°07'0 0.0
2014-Oct-14 22:32N 32°39' W 117°07'0 0.0
2014-Oct-14 21:32N 32°39' W 117°07'0 0.0
2014-Oct-14 20:32N 32°39' W 117°07'0 0.0
2014-Oct-14 19:32N 32°39' W 117°07'0 0.0
2014-Oct-14 18:29N 32°39' W 117°07'0 0.0
2014-Oct-14 17:32N 32°39' W 117°07'0 0.0
2014-Oct-14 16:32N 32°39' W 117°07'0 0.0
2014-Oct-14 15:32N 32°39' W 117°07'0 0.0
2014-Oct-14 14:32N 32°39' W 117°07'2 2.4
2014-Oct-14 13:34N 32°41' W 117°09'6 6.4
2014-Oct-14 12:34N 32°37' W 117°15'1312.9
2014-Oct-14 11:33N 32°27' W 117°24'1615.5
2014-Oct-14 10:33N 32°14' W 117°34'1717.0
2014-Oct-14 09:33N 32°00' W 117°46'1717.4
2014-Oct-14 08:33N 31°46' W 117°58'1717.2
2014-Oct-14 07:33N 31°32' W 118°10'1818.1
2014-Oct-14 06:33N 31°18' W 118°23'1918.9
2014-Oct-14 05:33N 31°03' W 118°36'7719.2
2014-Oct-14 01:32N 30°47' W 120°04'2019.5
2014-Oct-14 00:32N 30°43' W 120°27'2119.8
2014-Oct-13 23:27N 30°38' W 120°51'5719.8
2014-Oct-13 20:33N 30°27' W 121°56'2119.6
2014-Oct-13 19:29N 30°22' W 122°20'1919.7
2014-Oct-13 18:30N 30°18' W 122°42'2119.7
2014-Oct-13 17:27N 30°14' W 123°05'1920.0
2014-Oct-13 16:29N 30°10' W 123°27'20718.9
2014-Oct-13 05:30N 29°22' W 127°19'2618.5
2014-Oct-13 04:05N 29°15' W 127°48'  

Dump ship's entire track history